Terminal Aerodrome Forecast
Issued by NWS

Current Version | Previous Version | Text Only | Print | Product List | Glossary On
Versions: 1 2 3 4 5 6 7 8 9 10 11 12
136
FTUS42 KTBW 201722
TAFPIE
TAF
KPIE 201722Z 2018/2118 08005KT P6SM VCTS SCT050CB BKN200
     FM202100 04007KT P6SM SHRA BKN040
     FM210000 13010G15KT P6SM VCTS SCT035CB
     FM210300 11007KT P6SM BKN150=

USA.gov is the U.S. government's official web portal to all federal, state and local government web resources and services.